createdAt,value
2023-01-28T00:01:15.591Z,3.67
2023-01-28T00:03:47.837Z,4.83
2023-01-28T00:06:18.988Z,6.30
2023-01-28T00:08:48.784Z,1.57
2023-01-28T00:11:18.408Z,1.20
2023-01-28T00:13:48.080Z,1.20
2023-01-28T00:16:17.690Z,1.40
2023-01-28T00:18:49.921Z,1.70
2023-01-28T00:21:19.565Z,1.40
2023-01-28T00:23:54.664Z,1.50
2023-01-28T00:26:25.801Z,2.13
2023-01-28T00:28:55.602Z,1.87
2023-01-28T00:31:27.377Z,1.83
2023-01-28T00:34:00.364Z,1.80
2023-01-28T00:36:30.362Z,1.90
2023-01-28T00:39:02.059Z,2.07
2023-01-28T00:41:32.857Z,1.63
2023-01-28T00:44:02.545Z,2.00
2023-01-28T00:46:32.545Z,1.57
2023-01-28T00:49:04.787Z,1.70
2023-01-28T00:51:34.426Z,1.60
2023-01-28T00:54:04.053Z,1.53
2023-01-28T00:56:34.056Z,1.77
2023-01-28T00:59:03.663Z,1.50
2023-01-28T01:01:33.544Z,1.63
2023-01-28T01:04:05.892Z,1.70
2023-01-28T01:06:37.409Z,1.40
2023-01-28T01:09:09.555Z,1.60
2023-01-28T01:11:39.629Z,1.60
2023-01-28T01:14:09.269Z,2.37
2023-01-28T01:16:38.952Z,3.43
2023-01-28T01:19:11.769Z,2.87
2023-01-28T01:21:41.501Z,2.30
2023-01-28T01:24:11.407Z,2.47
2023-01-28T01:26:41.084Z,2.20
2023-01-28T01:29:10.831Z,1.50
2023-01-28T01:31:40.596Z,1.73
2023-01-28T01:34:12.936Z,1.73
2023-01-28T01:36:44.154Z,1.40
2023-01-28T01:39:15.112Z,1.70
2023-01-28T01:41:45.941Z,1.50
2023-01-28T01:44:45.699Z,1.70
2023-01-28T01:47:16.767Z,1.97
2023-01-28T01:49:49.267Z,1.50
2023-01-28T01:52:23.360Z,1.60
2023-01-28T01:54:58.278Z,1.47
2023-01-28T01:57:31.655Z,1.80
2023-01-28T02:00:06.363Z,1.90
2023-01-28T02:02:48.646Z,1.70
2023-01-28T02:05:23.360Z,1.50
2023-01-28T02:07:55.199Z,1.53
2023-01-28T02:10:26.368Z,1.37
2023-01-28T02:13:00.643Z,1.70
2023-01-28T02:15:30.840Z,1.73
2023-01-28T02:18:00.654Z,1.70
2023-01-28T02:20:46.527Z,1.90
2023-01-28T02:23:31.495Z,2.20
2023-01-28T02:26:28.073Z,2.17
2023-01-28T02:29:08.310Z,1.80
2023-01-28T02:31:45.180Z,2.40
2023-01-28T02:34:26.837Z,2.37
2023-01-28T02:37:00.691Z,2.27
2023-01-28T02:39:37.400Z,2.40
2023-01-28T02:42:16.458Z,2.40
2023-01-28T02:44:48.758Z,2.27
2023-01-28T02:47:31.262Z,2.87
2023-01-28T02:50:05.102Z,2.93
2023-01-28T02:53:05.604Z,2.60
2023-01-28T02:55:42.112Z,2.77
2023-01-28T02:58:21.003Z,2.33
2023-01-28T03:01:04.666Z,2.50
2023-01-28T03:03:41.119Z,2.37
2023-01-28T03:06:15.239Z,2.47
2023-01-28T03:09:02.874Z,2.20
2023-01-28T03:11:49.730Z,2.23
2023-01-28T03:14:34.594Z,2.10
2023-01-28T03:17:23.065Z,2.00
2023-01-28T03:20:06.096Z,2.20
2023-01-28T03:22:52.694Z,2.50
2023-01-28T03:25:38.151Z,2.30
2023-01-28T03:28:25.832Z,2.40
2023-01-28T03:31:15.910Z,2.00
2023-01-28T03:34:09.869Z,1.93
2023-01-28T03:36:53.456Z,2.47
2023-01-28T03:39:41.426Z,2.33
2023-01-28T03:42:14.875Z,2.43
2023-01-28T03:44:55.336Z,2.30
2023-01-28T03:47:27.141Z,1.97
2023-01-28T03:50:01.027Z,1.70
2023-01-28T03:52:35.432Z,2.50
2023-01-28T03:55:20.727Z,2.43
2023-01-28T03:57:50.467Z,3.30
2023-01-28T04:00:22.063Z,1.50
2023-01-28T04:02:51.854Z,1.70
2023-01-28T04:05:26.023Z,1.40
2023-01-28T04:07:57.820Z,1.50
2023-01-28T04:10:45.993Z,1.57
2023-01-28T04:13:26.985Z,1.13
2023-01-28T04:15:56.777Z,2.03
2023-01-28T04:18:27.531Z,1.60
2023-01-28T04:21:01.881Z,1.20
2023-01-28T04:23:32.428Z,1.67
2023-01-28T04:26:02.088Z,1.40
2023-01-28T04:28:31.833Z,1.57
2023-01-28T04:31:02.757Z,1.60
2023-01-28T04:33:54.271Z,1.40
2023-01-28T04:36:45.314Z,1.90
2023-01-28T04:39:38.360Z,1.53
2023-01-28T04:42:23.901Z,1.30
2023-01-28T04:45:09.126Z,1.60
2023-01-28T04:47:53.017Z,1.40
2023-01-28T04:50:48.670Z,1.30
2023-01-28T04:53:46.715Z,1.53
2023-01-28T04:56:32.009Z,1.63
2023-01-28T04:59:02.715Z,1.37
2023-01-28T05:01:33.492Z,1.73
2023-01-28T05:04:05.780Z,1.63
2023-01-28T05:06:38.812Z,1.77
2023-01-28T05:09:15.193Z,1.37
2023-01-28T05:11:45.013Z,1.57
2023-01-28T05:14:14.901Z,1.70
2023-01-28T05:16:48.667Z,2.10
2023-01-28T05:19:19.976Z,1.50
2023-01-28T05:21:49.987Z,1.70
2023-01-28T05:24:38.172Z,1.23
2023-01-28T05:27:07.843Z,1.60
2023-01-28T05:29:37.590Z,1.80
2023-01-28T05:32:07.956Z,1.83
2023-01-28T05:34:38.109Z,1.50
2023-01-28T05:37:13.242Z,1.40
2023-01-28T05:39:45.559Z,1.40
2023-01-28T05:42:15.725Z,1.57
2023-01-28T05:44:49.434Z,1.40
2023-01-28T05:47:25.936Z,2.00
2023-01-28T05:50:04.344Z,1.40
2023-01-28T05:52:40.143Z,1.80
2023-01-28T05:55:20.694Z,1.50
2023-01-28T05:57:51.040Z,1.33
2023-01-28T06:00:24.407Z,1.63
2023-01-28T06:02:54.772Z,1.30
2023-01-28T06:05:24.997Z,1.27
2023-01-28T06:07:55.578Z,1.90
2023-01-28T06:10:27.782Z,1.90
2023-01-28T06:12:58.227Z,2.00
2023-01-28T06:15:39.615Z,1.70
2023-01-28T06:18:27.417Z,1.80
2023-01-28T06:20:57.146Z,2.00
2023-01-28T06:23:26.891Z,1.40
2023-01-28T06:26:00.426Z,1.37
2023-01-28T06:28:30.240Z,1.50
2023-01-28T06:30:59.955Z,1.70
2023-01-28T06:33:29.681Z,1.70
2023-01-28T06:35:59.398Z,1.63
2023-01-28T06:38:29.018Z,1.47
2023-01-28T06:41:01.389Z,1.87
2023-01-28T06:43:31.065Z,1.70
2023-01-28T06:46:00.999Z,1.73
2023-01-28T06:48:31.354Z,1.33
2023-01-28T06:51:00.989Z,2.00
2023-01-28T06:53:30.675Z,1.60
2023-01-28T06:56:02.897Z,1.87
2023-01-28T06:58:32.592Z,2.20
2023-01-28T07:01:02.262Z,1.90
2023-01-28T07:03:32.995Z,1.57
2023-01-28T07:06:03.610Z,1.70
2023-01-28T07:08:37.002Z,1.60
2023-01-28T07:11:11.051Z,1.73
2023-01-28T07:13:41.698Z,2.10
2023-01-28T07:16:12.424Z,2.10
2023-01-28T07:18:42.393Z,1.50
2023-01-28T07:21:12.136Z,1.70
2023-01-28T07:23:42.177Z,2.60
2023-01-28T07:26:15.587Z,1.73
2023-01-28T07:28:45.246Z,2.20
2023-01-28T07:31:15.040Z,1.67
2023-01-28T07:33:45.171Z,1.30
2023-01-28T07:36:14.874Z,2.40
2023-01-28T07:38:44.727Z,1.60
2023-01-28T07:41:16.995Z,1.93
2023-01-28T07:43:46.681Z,1.90
2023-01-28T07:46:16.488Z,1.90
2023-01-28T07:48:46.212Z,1.90
2023-01-28T07:51:16.304Z,1.53
2023-01-28T07:53:45.995Z,1.70
2023-01-28T07:56:18.315Z,1.83
2023-01-28T07:58:48.044Z,2.00
2023-01-28T08:01:18.350Z,2.00
2023-01-28T08:03:48.117Z,1.40
2023-01-28T08:06:17.790Z,2.20
2023-01-28T08:08:47.481Z,2.20
2023-01-28T08:11:19.716Z,2.10
2023-01-28T08:13:49.963Z,2.10
2023-01-28T08:16:19.678Z,1.77
2023-01-28T08:18:49.412Z,1.60
2023-01-28T08:21:19.091Z,2.00
2023-01-28T08:23:48.816Z,2.00
2023-01-28T08:26:21.106Z,1.80
2023-01-28T08:28:51.736Z,1.93
2023-01-28T08:31:21.573Z,2.37
2023-01-28T08:33:51.321Z,2.00
2023-01-28T08:36:21.022Z,1.90
2023-01-28T08:38:54.775Z,2.20
2023-01-28T08:41:27.249Z,2.10
2023-01-28T08:43:56.931Z,2.43
2023-01-28T08:46:26.674Z,2.20
2023-01-28T08:48:56.419Z,2.43
2023-01-28T08:51:26.541Z,2.67
2023-01-28T08:53:56.246Z,3.13
2023-01-28T08:56:28.572Z,3.50
2023-01-28T08:58:58.250Z,4.40
2023-01-28T09:01:29.501Z,5.03
2023-01-28T09:03:59.349Z,5.00
2023-01-28T09:06:29.069Z,4.37
2023-01-28T09:09:00.009Z,3.60
2023-01-28T09:11:32.575Z,3.27
2023-01-28T09:14:02.483Z,3.93
2023-01-28T09:16:34.918Z,3.10
2023-01-28T09:19:04.592Z,3.60
2023-01-28T09:21:34.301Z,3.37
2023-01-28T09:24:04.028Z,3.13
2023-01-28T09:26:38.201Z,3.70
2023-01-28T09:29:07.937Z,3.50
2023-01-28T09:31:37.615Z,3.37
2023-01-28T09:34:07.282Z,3.00
2023-01-28T09:36:37.013Z,2.80
2023-01-28T09:39:08.369Z,2.80
2023-01-28T09:41:55.612Z,2.77
2023-01-28T09:44:40.355Z,2.37
2023-01-28T09:47:18.696Z,2.87
2023-01-28T09:49:52.499Z,2.90
2023-01-28T09:52:27.021Z,2.57
2023-01-28T09:55:02.631Z,4.70
2023-01-28T09:57:48.322Z,4.30
2023-01-28T10:00:20.379Z,3.27
2023-01-28T10:03:08.522Z,1.93
2023-01-28T10:05:48.294Z,2.63
2023-01-28T10:08:34.566Z,2.70
2023-01-28T10:11:12.222Z,2.60
2023-01-28T10:13:52.997Z,2.47
2023-01-28T10:16:31.030Z,2.30
2023-01-28T10:19:05.690Z,2.50
2023-01-28T10:21:42.155Z,2.60
2023-01-28T10:24:17.146Z,2.00
2023-01-28T10:26:47.843Z,2.10
2023-01-28T10:29:22.427Z,2.00
2023-01-28T10:31:56.429Z,2.40
2023-01-28T10:34:26.257Z,2.30
2023-01-28T10:36:57.090Z,1.90
2023-01-28T10:39:29.303Z,3.33
2023-01-28T10:41:59.670Z,3.60
2023-01-28T10:44:38.765Z,3.70
2023-01-28T10:47:16.236Z,4.23
2023-01-28T10:49:50.550Z,3.50
2023-01-28T10:52:20.481Z,3.43
2023-01-28T10:54:50.176Z,3.70
2023-01-28T10:57:21.891Z,3.97
2023-01-28T10:59:54.385Z,3.70
2023-01-28T11:02:32.379Z,3.63
2023-01-28T11:05:09.027Z,3.57
2023-01-28T11:07:38.725Z,3.87
2023-01-28T11:10:28.129Z,3.33
2023-01-28T11:12:58.939Z,2.90
2023-01-28T11:15:31.461Z,3.50
2023-01-28T11:18:04.187Z,3.50
2023-01-28T11:20:40.144Z,4.60
2023-01-28T11:23:09.885Z,4.10
2023-01-28T11:25:40.703Z,4.30
2023-01-28T11:28:21.279Z,4.17
2023-01-28T11:30:59.863Z,4.47
2023-01-28T11:33:36.425Z,4.50
2023-01-28T11:36:16.082Z,4.23
2023-01-28T11:38:57.096Z,4.87
2023-01-28T11:41:31.172Z,4.63
2023-01-28T11:44:02.143Z,5.07
2023-01-28T11:46:50.687Z,4.30
2023-01-28T11:49:30.623Z,4.90
2023-01-28T11:52:08.113Z,4.70
2023-01-28T11:54:50.511Z,4.47
2023-01-28T11:57:26.786Z,4.10
2023-01-28T12:00:06.749Z,3.93
2023-01-28T12:02:53.824Z,3.30
2023-01-28T12:05:47.926Z,4.03
2023-01-28T12:08:24.961Z,4.33
2023-01-28T12:11:11.939Z,3.80
2023-01-28T12:13:55.781Z,4.50
2023-01-28T12:16:56.994Z,4.17
2023-01-28T12:19:45.099Z,4.40
2023-01-28T12:22:26.904Z,4.43
2023-01-28T12:25:13.160Z,4.20
2023-01-28T12:27:51.289Z,4.37
2023-01-28T12:30:33.494Z,4.40
2023-01-28T12:33:17.700Z,4.53
2023-01-28T12:36:07.558Z,4.93
2023-01-28T12:38:46.421Z,4.80
2023-01-28T12:41:19.351Z,5.60
2023-01-28T12:43:54.755Z,4.60
2023-01-28T12:46:38.216Z,4.93
2023-01-28T12:49:14.951Z,5.13
2023-01-28T12:52:13.641Z,4.73
2023-01-28T12:54:51.423Z,4.90
2023-01-28T12:57:26.268Z,4.70
2023-01-28T13:00:01.292Z,4.73
2023-01-28T13:02:36.099Z,4.70
2023-01-28T13:05:11.465Z,4.80
2023-01-28T13:07:51.007Z,4.70
2023-01-28T13:10:27.159Z,4.70
2023-01-28T13:12:58.282Z,4.77
2023-01-28T13:15:28.645Z,4.90
2023-01-28T13:18:00.543Z,4.90
2023-01-28T13:20:39.972Z,4.80
2023-01-28T13:23:27.636Z,4.40
2023-01-28T13:25:58.767Z,5.70
2023-01-28T13:28:31.196Z,4.70
2023-01-28T13:31:06.736Z,4.90
2023-01-28T13:33:39.357Z,4.63
2023-01-28T13:36:24.124Z,5.23
2023-01-28T13:39:07.883Z,5.03
2023-01-28T13:41:41.821Z,5.07
2023-01-28T13:44:22.386Z,5.00
2023-01-28T13:46:52.327Z,5.27
2023-01-28T13:49:29.207Z,4.93
2023-01-28T13:52:04.471Z,5.93
2023-01-28T13:54:39.558Z,6.60
2023-01-28T13:57:56.779Z,7.63
2023-01-28T14:00:34.789Z,7.70
2023-01-28T14:03:34.317Z,8.33
2023-01-28T14:06:21.660Z,7.10
2023-01-28T14:09:04.583Z,8.40
2023-01-28T14:12:17.145Z,6.77
2023-01-28T14:15:07.505Z,5.87
2023-01-28T14:17:44.964Z,6.57
2023-01-28T14:20:22.377Z,15.80
2023-01-28T14:22:53.273Z,11.40
2023-01-28T14:25:31.990Z,6.20
2023-01-28T14:28:08.247Z,7.10
2023-01-28T14:30:46.550Z,10.40
2023-01-28T14:33:16.375Z,6.87
2023-01-28T14:35:48.963Z,6.03
2023-01-28T14:38:21.587Z,6.80
2023-01-28T14:40:53.954Z,5.93
2023-01-28T14:43:28.249Z,6.60
2023-01-28T14:46:11.975Z,6.03
2023-01-28T14:48:51.229Z,6.87
2023-01-28T14:51:39.656Z,7.50
2023-01-28T14:54:38.666Z,6.80
2023-01-28T14:57:23.962Z,8.40
2023-01-28T14:59:58.821Z,7.40
2023-01-28T15:02:30.444Z,8.20
2023-01-28T15:05:11.541Z,7.53
2023-01-28T15:07:46.075Z,9.00
2023-01-28T15:10:22.246Z,7.80
2023-01-28T15:12:56.750Z,8.23
2023-01-28T15:15:34.466Z,7.80
2023-01-28T15:18:08.443Z,8.53
2023-01-28T15:20:38.167Z,7.60
2023-01-28T15:23:10.362Z,7.27
2023-01-28T15:25:40.138Z,8.57
2023-01-28T15:28:16.514Z,7.60
2023-01-28T15:30:50.796Z,8.00
2023-01-28T15:33:23.437Z,7.50
2023-01-28T15:35:54.718Z,7.93
2023-01-28T15:38:25.427Z,7.37
2023-01-28T15:40:58.808Z,7.80
2023-01-28T15:43:31.708Z,8.03
2023-01-28T15:46:04.152Z,9.67
2023-01-28T15:48:36.624Z,13.37
2023-01-28T15:51:08.868Z,10.40
2023-01-28T15:53:47.633Z,9.17
2023-01-28T15:56:18.519Z,8.20
2023-01-28T15:58:48.268Z,7.57
2023-01-28T16:01:22.919Z,8.20
2023-01-28T16:04:04.895Z,8.00
2023-01-28T16:06:38.855Z,7.03
2023-01-28T16:09:17.003Z,8.03
2023-01-28T16:11:47.271Z,7.70
2023-01-28T16:14:26.355Z,7.70
2023-01-28T16:16:59.896Z,8.67
2023-01-28T16:19:36.573Z,7.67
2023-01-28T16:22:06.593Z,7.07
2023-01-28T16:24:38.837Z,6.53
2023-01-28T16:27:21.978Z,6.93
2023-01-28T16:29:51.872Z,9.73
2023-01-28T16:32:33.947Z,9.90
2023-01-28T16:35:04.679Z,8.67
2023-01-28T16:37:34.344Z,8.60
2023-01-28T16:40:05.433Z,8.80
2023-01-28T16:42:35.666Z,8.67
2023-01-28T16:45:05.804Z,10.77
2023-01-28T16:47:38.154Z,9.20
2023-01-28T16:50:08.482Z,9.87
2023-01-28T16:52:38.189Z,10.70
2023-01-28T16:55:08.644Z,12.90
2023-01-28T16:57:39.230Z,11.00
2023-01-28T17:00:10.774Z,9.53
2023-01-28T17:02:43.037Z,9.77
2023-01-28T17:05:15.307Z,10.70
2023-01-28T17:07:45.536Z,11.60
2023-01-28T17:10:15.779Z,13.20
2023-01-28T17:12:45.489Z,13.50
2023-01-28T17:15:15.663Z,13.87
2023-01-28T17:17:50.814Z,13.83
2023-01-28T17:20:20.721Z,11.37
2023-01-28T17:22:50.593Z,11.00
2023-01-28T17:25:20.525Z,10.80
2023-01-28T17:27:51.780Z,10.67
2023-01-28T17:30:23.017Z,11.40
2023-01-28T17:32:55.268Z,14.17
2023-01-28T17:35:24.915Z,15.10
2023-01-28T17:37:55.480Z,13.60
2023-01-28T17:40:25.961Z,12.10
2023-01-28T17:42:55.627Z,11.23
2023-01-28T17:45:25.495Z,12.80
2023-01-28T17:47:57.743Z,13.90
2023-01-28T17:50:27.478Z,13.00
2023-01-28T17:52:57.656Z,11.30
2023-01-28T17:55:28.290Z,11.03
2023-01-28T17:57:58.605Z,10.70
2023-01-28T18:00:28.607Z,13.03
2023-01-28T18:03:00.953Z,12.53
2023-01-28T18:05:30.617Z,12.53
2023-01-28T18:08:00.258Z,12.30
2023-01-28T18:10:29.997Z,11.93
2023-01-28T18:12:59.690Z,13.67
2023-01-28T18:15:30.252Z,14.33
2023-01-28T18:18:03.924Z,14.30
2023-01-28T18:20:35.168Z,14.70
2023-01-28T18:23:06.113Z,13.53
2023-01-28T18:25:36.078Z,13.87
2023-01-28T18:28:08.402Z,13.80
2023-01-28T18:30:38.160Z,12.97
2023-01-28T18:33:10.749Z,13.10
2023-01-28T18:35:44.257Z,13.87
2023-01-28T18:38:14.651Z,13.20
2023-01-28T18:40:46.149Z,13.93
2023-01-28T18:43:16.478Z,14.33
2023-01-28T18:45:49.472Z,14.03
2023-01-28T18:48:22.105Z,14.97
2023-01-28T18:50:55.241Z,16.17
2023-01-28T18:53:26.237Z,14.23
2023-01-28T18:55:56.614Z,14.43
2023-01-28T18:58:26.664Z,15.43
2023-01-28T19:00:56.489Z,15.80
2023-01-28T19:03:29.366Z,14.50
2023-01-28T19:05:59.001Z,13.00
2023-01-28T19:08:28.789Z,14.90
2023-01-28T19:10:58.846Z,16.37
2023-01-28T19:13:28.753Z,15.00
2023-01-28T19:15:58.499Z,15.00
2023-01-28T19:18:31.011Z,14.80
2023-01-28T19:21:04.576Z,15.20
2023-01-28T19:23:48.182Z,15.40
2023-01-28T19:26:21.367Z,16.50
2023-01-28T19:28:51.991Z,16.50
2023-01-28T19:31:23.656Z,15.60
2023-01-28T19:34:00.820Z,17.07
2023-01-28T19:36:34.386Z,17.07
2023-01-28T19:39:06.450Z,17.90
2023-01-28T19:41:36.565Z,17.47
2023-01-28T19:44:07.076Z,17.53
2023-01-28T19:46:38.267Z,18.40
2023-01-28T19:49:10.739Z,18.50
2023-01-28T19:51:40.482Z,17.70
2023-01-28T19:54:10.219Z,17.30
2023-01-28T19:56:39.895Z,19.27
2023-01-28T19:59:09.568Z,19.17
2023-01-28T20:01:39.222Z,19.10
2023-01-28T20:04:11.608Z,20.03
2023-01-28T20:06:41.312Z,20.20
2023-01-28T20:09:20.439Z,20.43
2023-01-28T20:11:50.136Z,18.73
2023-01-28T20:14:21.438Z,18.50
2023-01-28T20:16:51.127Z,18.27
2023-01-28T20:19:23.408Z,18.90
2023-01-28T20:21:54.306Z,18.80
2023-01-28T20:24:24.188Z,17.70
2023-01-28T20:26:53.884Z,16.40
2023-01-28T20:29:23.559Z,16.53
2023-01-28T20:32:14.804Z,18.37
2023-01-28T20:34:48.447Z,18.67
2023-01-28T20:37:18.480Z,17.53
2023-01-28T20:39:48.404Z,18.73
2023-01-28T20:42:18.110Z,17.53
2023-01-28T20:44:47.777Z,16.83
2023-01-28T20:47:17.426Z,17.90
2023-01-28T20:49:49.666Z,17.93
2023-01-28T20:52:19.319Z,17.97
2023-01-28T20:54:50.392Z,17.57
2023-01-28T20:57:20.053Z,18.13
2023-01-28T20:59:49.782Z,18.00
2023-01-28T21:02:19.526Z,17.77
2023-01-28T21:04:51.825Z,18.53
2023-01-28T21:07:21.485Z,18.37
2023-01-28T21:09:51.156Z,17.80
2023-01-28T21:12:20.918Z,18.30
2023-01-28T21:14:51.070Z,18.33
2023-01-28T21:17:20.761Z,19.03
2023-01-28T21:19:53.038Z,19.13
2023-01-28T21:22:22.814Z,19.90
2023-01-28T21:24:52.511Z,20.47
2023-01-28T21:27:22.155Z,20.20
2023-01-28T21:29:51.835Z,20.90
2023-01-28T21:32:25.566Z,20.40
2023-01-28T21:34:58.897Z,20.27
2023-01-28T21:37:28.693Z,20.90
2023-01-28T21:39:58.408Z,20.97
2023-01-28T21:42:28.771Z,20.67
2023-01-28T21:44:58.498Z,19.50
2023-01-28T21:47:28.157Z,19.27
2023-01-28T21:50:00.805Z,21.70
2023-01-28T21:52:30.457Z,20.57
2023-01-28T21:55:00.288Z,19.63
2023-01-28T21:57:29.974Z,20.10
2023-01-28T21:59:57.141Z,20.37
2023-01-28T22:02:26.804Z,19.93
2023-01-28T22:04:56.533Z,20.70
2023-01-28T22:07:28.787Z,20.30
2023-01-28T22:09:58.432Z,19.20
2023-01-28T22:12:28.317Z,20.63
2023-01-28T22:14:58.141Z,20.40
2023-01-28T22:17:27.778Z,20.17
2023-01-28T22:19:57.433Z,20.33
2023-01-28T22:22:29.705Z,20.70
2023-01-28T22:24:59.980Z,20.67
2023-01-28T22:27:29.734Z,20.77
2023-01-28T22:29:59.398Z,19.53
2023-01-28T22:32:29.180Z,18.85
2023-01-28T22:35:00.197Z,19.47
2023-01-28T22:37:32.430Z,20.37
2023-01-28T22:40:02.146Z,19.27
2023-01-28T22:42:31.838Z,20.07
2023-01-28T22:45:01.462Z,20.60
2023-01-28T22:47:31.110Z,18.97
2023-01-28T22:50:00.756Z,21.10
2023-01-28T22:52:33.010Z,20.47
2023-01-28T22:55:02.659Z,22.33
2023-01-28T22:57:32.374Z,21.90
2023-01-28T23:00:02.094Z,21.00
2023-01-28T23:02:31.886Z,22.13
2023-01-28T23:05:01.604Z,22.00
2023-01-28T23:07:34.089Z,20.60
2023-01-28T23:10:03.804Z,21.67
2023-01-28T23:12:33.562Z,21.63
2023-01-28T23:15:15.726Z,22.23
2023-01-28T23:17:57.997Z,21.87
2023-01-28T23:20:40.163Z,21.40
2023-01-28T23:23:30.871Z,23.43
2023-01-28T23:26:00.504Z,23.55
2023-01-28T23:28:30.272Z,23.57
2023-01-28T23:31:00.890Z,22.83
2023-01-28T23:33:30.677Z,21.90
2023-01-28T23:36:00.410Z,22.10
2023-01-28T23:38:32.686Z,20.83
2023-01-28T23:41:02.306Z,23.30
2023-01-28T23:43:32.217Z,23.30
2023-01-28T23:46:02.186Z,23.50
2023-01-28T23:48:31.851Z,23.27
2023-01-28T23:51:01.483Z,22.60
2023-01-28T23:53:33.769Z,22.80
2023-01-28T23:56:03.588Z,22.47
2023-01-28T23:58:42.958Z,24.10
